Map

Track Data

SID SEASON NUMBER BASIN SUBBASIN NAME ISO_TIME NATURE LAT LON WMO_WIND WMO_PRES WMO_AGENCY TRACK_TYPE DIST2LAND LANDFALL IFLAG USA_AGENCY USA_ATCF_ID USA_LAT USA_LON USA_RECORD USA_STATUS USA_WIND USA_PRES USA_SSHS USA_R34_NE USA_R34_SE USA_R34_SW USA_R34_NW USA_R50_NE USA_R50_SE USA_R50_SW USA_R50_NW USA_R64_NE USA_R64_SE USA_R64_SW USA_R64_NW USA_POCI USA_ROCI USA_RMW USA_EYE TOKYO_LAT TOKYO_LON TOKYO_GRADE TOKYO_WIND TOKYO_PRES TOKYO_R50_DIR TOKYO_R50_LONG TOKYO_R50_SHORT TOKYO_R30_DIR TOKYO_R30_LONG TOKYO_R30_SHORT TOKYO_LAND CMA_LAT CMA_LON CMA_CAT CMA_WIND CMA_PRES HKO_LAT HKO_LON HKO_CAT HKO_WIND HKO_PRES NEWDELHI_LAT NEWDELHI_LON NEWDELHI_GRADE NEWDELHI_WIND NEWDELHI_PRES NEWDELHI_CI NEWDELHI_DP NEWDELHI_POCI REUNION_LAT REUNION_LON REUNION_TYPE REUNION_WIND REUNION_PRES REUNION_TNUM REUNION_CI REUNION_RMW REUNION_R34_NE REUNION_R34_SE REUNION_R34_SW REUNION_R34_NW REUNION_R50_NE REUNION_R50_SE REUNION_R50_SW REUNION_R50_NW REUNION_R64_NE REUNION_R64_SE REUNION_R64_SW REUNION_R64_NW BOM_LAT BOM_LON BOM_TYPE BOM_WIND BOM_PRES BOM_TNUM BOM_CI BOM_RMW BOM_R34_NE BOM_R34_SE BOM_R34_SW BOM_R34_NW BOM_R50_NE BOM_R50_SE BOM_R50_SW BOM_R50_NW BOM_R64_NE BOM_R64_SE BOM_R64_SW BOM_R64_NW BOM_ROCI BOM_POCI BOM_EYE BOM_POS_METHOD BOM_PRES_METHOD NADI_LAT NADI_LON NADI_CAT NADI_WIND NADI_PRES WELLINGTON_LAT WELLINGTON_LON WELLINGTON_WIND WELLINGTON_PRES DS824_LAT DS824_LON DS824_STAGE DS824_WIND DS824_PRES TD9636_LAT TD9636_LON TD9636_STAGE TD9636_WIND TD9636_PRES TD9635_LAT TD9635_LON TD9635_WIND TD9635_PRES TD9635_ROCI NEUMANN_LAT NEUMANN_LON NEUMANN_CLASS NEUMANN_WIND NEUMANN_PRES MLC_LAT MLC_LON MLC_CLASS MLC_WIND MLC_PRES USA_GUST BOM_GUST BOM_GUST_PER REUNION_GUST REUNION_GUST_PER USA_SEAHGT USA_SEARAD_NE USA_SEARAD_SE USA_SEARAD_SW USA_SEARAD_NW STORM_SPEED STORM_DIR
1988219N32283 1988 49 NA NA ALBERTO 1988-08-05 18:00:00 TS 32.0000 -77.5000 20 1015 hurdat_atl main 207 201 O_____________ hurdat_atl AL011988 32.0000 -77.5000 TD 20 1015 -1 13 58
1988219N32283 1988 49 NA NA ALBERTO 1988-08-05 21:00:00 TS 32.3608 -76.8306 main 201 199 P_____________ AL011988 32.3608 -76.8306 TD 20 1014 -1 14 54
1988219N32283 1988 49 NA NA ALBERTO 1988-08-06 00:00:00 TS 32.8000 -76.2000 20 1014 hurdat_atl main 207 172 O_____________ hurdat_atl AL011988 32.8000 -76.2000 TD 20 1014 -1 14 45
1988219N32283 1988 49 NA NA ALBERTO 1988-08-06 03:00:00 TS 33.3698 -75.6476 main 166 141 P_____________ AL011988 33.3698 -75.6476 TD 20 1013 -1 15 35
1988219N32283 1988 49 NA NA ALBERTO 1988-08-06 06:00:00 TS 34.0000 -75.2000 20 1013 hurdat_atl main 142 126 O_____________ hurdat_atl AL011988 34.0000 -75.2000 TD 20 1013 -1 13 27
1988219N32283 1988 49 NA NA ALBERTO 1988-08-06 09:00:00 TS 34.5543 -74.9048 main 131 105 P_____________ AL011988 34.5543 -74.9048 TD 22 1012 -1 13 22
1988219N32283 1988 49 NA NA ALBERTO 1988-08-06 12:00:00 TS 35.2000 -74.6000 25 1012 hurdat_atl main 105 98 O_____________ hurdat_atl AL011988 35.2000 -74.6000 TD 25 1012 -1 17 24
1988219N32283 1988 49 NA NA ALBERTO 1988-08-06 15:00:00 TS 36.0627 -74.0882 main 130 130 P_____________ AL011988 36.0627 -74.0882 TD 25 1011 -1 20 26
1988219N32283 1988 49 NA NA ALBERTO 1988-08-06 18:00:00 TS 37.0000 -73.5000 25 1011 hurdat_atl main 197 183 O_____________ hurdat_atl AL011988 37.0000 -73.5000 TD 25 1011 -1 20 26
1988219N32283 1988 49 NA NA ALBERTO 1988-08-06 21:00:00 TS 37.8866 -72.9857 main 188 183 P_____________ AL011988 37.8866 -72.9857 TD 25 1010 -1 19 27
1988219N32283 1988 49 NA NA ALBERTO 1988-08-07 00:00:00 TS 38.7000 -72.4000 25 1009 hurdat_atl main 186 180 O_____________ hurdat_atl AL011988 38.7000 -72.4000 TD 25 1009 -1 18 35
1988219N32283 1988 49 NA NA ALBERTO 1988-08-07 03:00:00 TS 39.3648 -71.6502 main 173 166 P_____________ AL011988 39.3648 -71.6502 TD 27 1007 -1 18 44
1988219N32283 1988 49 NA NA ALBERTO 1988-08-07 06:00:00 TS 40.0000 -70.8000 30 1006 hurdat_atl main 166 105 O_____________ hurdat_atl AL011988 40.0000 -70.8000 TD 30 1006 -1 19 45
1988219N32283 1988 49 NA NA ALBERTO 1988-08-07 09:00:00 TS 40.7351 -69.8923 main 108 74 P_____________ AL011988 40.7351 -69.8923 TD 32 1004 -1 20 42
1988219N32283 1988 49 NA NA ALBERTO 1988-08-07 12:00:00 TS 41.5000 -69.0000 35 1002 hurdat_atl main 85 85 O_____________ hurdat_atl AL011988 41.5000 -69.0000 TS 35 1002 0 19 40
1988219N32283 1988 49 NA NA ALBERTO 1988-08-07 15:00:00 TS 42.2108 -68.2594 main 146 137 P_____________ AL011988 42.2108 -68.2594 TS 35 1002 0 19 37
1988219N32283 1988 49 NA NA ALBERTO 1988-08-07 18:00:00 TS 43.0000 -67.5000 35 1002 hurdat_atl main 137 31 O_____________ hurdat_atl AL011988 43.0000 -67.5000 TS 35 1002 0 21 35
1988219N32283 1988 49 NA NA ALBERTO 1988-08-07 21:00:00 TS 43.9616 -66.5729 main 31 0 P_____________ AL011988 43.9616 -66.5729 TS 35 1003 0 25 36
1988219N32283 1988 49 NA NA ALBERTO 1988-08-08 00:00:00 TS 45.0000 -65.5000 35 1004 hurdat_atl main 19 0 O_____________ hurdat_atl AL011988 45.0000 -65.5000 TS 35 1004 0 26 38
1988219N32283 1988 49 NA NA ALBERTO 1988-08-08 03:00:00 TS 45.9986 -64.3203 main 0 0 P_____________ AL011988 45.9986 -64.3203 TS 35 1005 0 26 41
1988219N32283 1988 49 NA NA ALBERTO 1988-08-08 06:00:00 TS 47.0000 -63.0000 35 1006 hurdat_atl main 67 67 O_____________ hurdat_atl AL011988 47.0000 -63.0000 TS 35 1006 0 27 43
1988219N32283 1988 49 NA NA ALBERTO 1988-08-08 09:00:00 TS 47.9964 -61.6040 main 122 80 P_____________ AL011988 47.9964 -61.6040 TS 32 1007 -1 28 45
1988219N32283 1988 49 NA NA ALBERTO 1988-08-08 12:00:00 ET 49.0000 -60.0000 30 1008 hurdat_atl main 79 30 O_____________ hurdat_atl AL011988 49.0000 -60.0000 EX 30 1008 -4 30 49
1988219N32283 1988 49 NA NA ALBERTO 1988-08-08 15:00:00 ET 50.0089 -58.1075 main 24 0 P_____________ AL011988 50.0089 -58.1075 EX 27 1009 -4 32 52
1988219N32283 1988 49 NA NA ALBERTO 1988-08-08 18:00:00 ET 51.0000 -56.0000 25 1010 hurdat_atl main 0 O_____________ hurdat_atl AL011988 51.0000 -56.0000 EX 25 1010 -4 33 53

About IBTrACS Database

This database is a web-friendly format of International Best Track Archive for Climate Stewardship (IBTrACS), a global best track data archive curated by NOAA dating back to 1842.

Updated: 2021-10-27